Aeroporto :
LOGIN :

Iscrizione | Disclaimer

   EN    FR    IT 

 










Sommario :    VFR   VFR Marginale   IFR   IFR Intensivo   IFR Molto Intensivo
Visibilità : 
Base nubi : 
>= 8 km
>= 3000ft
5 / 8 km
1000 / 3000 ft
1500m / 5 km
500 / 1000 ft
800 / 1500m
200 / 500 ft
< 800m
< 200 ft
Simboli :   Temporali  Nebbia  Neve Forte  Precipitazioni Forti  Vento > 20 kt
SIGMETs :   Varie  Temporali  Ghiacco  Turbolenza  Onda orograficha  Ceneri Vulcaniche







- Altitudine del aeroporto : 289 ft
- Codice IATA : ZAD


LDZD - Zadar

ULTIMO METAR :
  • 271230Z 33011KT 290V020 CAVOK 35/15 Q1016 NOSIG

METARs OBSOLETI :
  • 271200Z 31010KT 270V010 CAVOK 35/16 Q1017 NOSIG
  • 271130Z 31008KT 260V360 CAVOK 35/15 Q1017 BECMG 30011KT
  • 271100Z 28009KT 240V340 CAVOK 36/15 Q1017 BECMG 30011KT
  • 271030Z 29006KT 220V350 CAVOK 35/16 Q1018 BECMG 31012KT
  • 271000Z 28009KT 250V350 CAVOK 34/18 Q1018 BECMG 31012KT

TAF TAF LDZD
Valido dal 27 a 12 ore il 28 a 12 ore UTC


271125Z 2712/2812 30011KT CAVOK TX36/2712Z TN20/2803Z
BECMG 2717/2719 VRB02KT
BECMG 2802/2804 06009KT
BECMG 2805/2807 06012KT
Nessun NOTAM noto per questo aeroporto.



MetMap, La meteo Aeronautica in un colpo d'occhio ! - Copyright ORBIFLY Dicembre 2007 - Disclaimer

ORBIFLY MET'MAP TEAM :

Programmazione e sviluppo : Alexandra Zaïnal
Concezione e sviluppo : Baudouin d'Aumeries
Co-Programmazione e sviluppo : Marc-Olivier Méhu
Supporto tecnico e logistico : Manuel Goepfert
Aiuto per la traduzione : Arnaldo La Scala

Contatto : metmap@orbifly.com




FONTI E CREDITI :

   NOAA